Terminal Aerodrome Forecast
Issued by NWS

Home | Current Version | Previous Version | Graphics & Text | Print | Product List | Glossary On
Versions: 1 2 3 4 5 6 7 8 9 10 11 12 13 14 15 16 17
305
FTUS43 KOAX 240528
TAFCDR
TAF
KCDR 240528Z 2406/2506 01016G25KT P6SM OVC015
     FM241000 01016G25KT P6SM OVC035
     FM241200 36016G24KT P6SM VCSH BKN060
     FM241500 35016G25KT P6SM BKN080=

USA.gov is the U.S. government's official web portal to all federal, state and local government web resources and services.